Glenallen, Missouri
Current Conditions -  °F | °C
As of 12:53 PM on Friday 24 Oct 2014 (Local Time) from KCGI Reporting Station
Clear Clear  
Wind Chill: 66°   Ceiling: Unl
Heat Index: 66°   Visibility: 10mi
Dew Point: 56°   Wind: 0mph
Humidity: 70%   Direction: NA
Pressure: 30.11"   Gusts: NA
Location:  37.32°N, 90.03°W
Report Text: KCGI 241753Z 00000KT 10SM CLR 19/13 A3011 RMK AO2 SLP195 T01890133 10200 20100 58010
Loading
Personal Weather Stations






























Interactive Weather Map
Tropical Storm Tracking
New forecast layout! Learn more

10-Day Weather Forecast

Advertisements
Track Severe Weather on mobile